Time;durP1;ratioP1;P1;durP2;ratioP2;P2;SDS_P1;SDS_P2;PMS_P1;PMS_P2;Temp;Humidity;BMP_temperature;BMP_pressure;BME280_temperature;BME280_humidity;BME280_pressure;Samples;Min_cycle;Max_cycle;Signal;HPM_P1;HPM_P2
2022/03/06 00:02:22;;;;;;;;;;;0.40;99.90;;;;;;5112045;28;19968;-74
2022/03/06 00:04:48;;;;;;;;;;;0.40;99.90;;;;;;5093448;28;19980;-74
2022/03/06 00:07:13;;;;;;;;;;;0.40;99.90;;;;;;5093551;28;19927;-73
2022/03/06 00:09:39;;;;;;;;;;;0.40;99.90;;;;;;5111654;28;19915;-73
2022/03/06 00:12:05;;;;;;;;;;;0.30;99.90;;;;;;5111971;28;19908;-73
2022/03/06 00:14:31;;;;;;;;;;;0.40;99.90;;;;;;5093474;28;19912;-74
2022/03/06 00:16:56;;;;;;;;;;;0.40;99.90;;;;;;5111542;28;19915;-73
2022/03/06 00:19:22;;;;;;;;;;;0.30;99.90;;;;;;5093203;28;19908;-74
2022/03/06 00:21:48;;;;;;;;;;;0.40;99.90;;;;;;5093237;28;19915;-74
2022/03/06 00:24:13;;;;;;;;;;;0.40;99.90;;;;;;5111410;28;19958;-74
2022/03/06 00:26:39;;;;;;;;;;;0.30;99.90;;;;;;5092671;28;20382;-74
2022/03/06 00:29:05;;;;;;;;;;;0.30;99.90;;;;;;5093521;28;20334;-74
2022/03/06 00:31:31;;;;;;;;;;;0.40;99.90;;;;;;5110654;27;20010;-74
2022/03/06 00:33:57;;;;;;;;;;;0.40;99.90;;;;;;5132165;27;19923;-74
2022/03/06 00:36:22;;;;;;;;;;;0.40;99.90;;;;;;5134123;27;19912;-74
2022/03/06 00:38:48;;;;;;;;;;;0.40;99.90;;;;;;5132488;27;19916;-73
2022/03/06 00:41:14;;;;;;;;;;;0.40;99.90;;;;;;5131745;27;19946;-73
2022/03/06 00:43:40;;;;;;;;;;;0.30;99.90;;;;;;5132333;27;20342;-73
2022/03/06 00:46:06;;;;;;;;;;;0.30;99.90;;;;;;5117249;27;19923;-73
2022/03/06 00:48:31;;;;;;;;;;;0.30;99.90;;;;;;5093280;28;19932;-73
2022/03/06 00:50:57;;;;;;;;;;;0.20;99.90;;;;;;5105570;28;19915;-74
2022/03/06 00:53:23;;;;;;;;;;;0.20;99.90;;;;;;5130656;28;20374;-74
2022/03/06 00:55:49;;;;;;;;;;;0.20;99.90;;;;;;5101157;28;20316;-75
2022/03/06 00:58:14;;;;;;;;;;;0.20;99.90;;;;;;5111784;28;19922;-75
2022/03/06 01:00:42;;;;;;;;;;;0.20;99.90;;;;;;5127231;28;19907;-73
2022/03/06 01:03:08;;;;;;;;;;;0.20;99.90;;;;;;5131700;28;19920;-73
2022/03/06 01:05:34;;;;;;;;;;;0.20;99.90;;;;;;5121535;28;20367;-74
2022/03/06 01:08:00;;;;;;;;;;;0.20;99.90;;;;;;5111128;28;19920;-73
2022/03/06 01:10:26;;;;;;;;;;;0.20;99.90;;;;;;5119453;28;20343;-73
2022/03/06 01:12:51;;;;;;;;;;;0.20;99.90;;;;;;5131519;28;19923;-73
2022/03/06 01:15:17;;;;;;;;;;;0.20;99.90;;;;;;5112826;28;19989;-73
2022/03/06 01:17:43;;;;;;;;;;;0.20;99.90;;;;;;5131798;28;19915;-74
2022/03/06 01:20:08;;;;;;;;;;;0.20;99.90;;;;;;5112986;28;19908;-74
2022/03/06 01:22:34;;;;;;;;;;;0.20;99.90;;;;;;5113135;28;20017;-75
2022/03/06 01:25:00;;;;;;;;;;;0.20;99.90;;;;;;5126361;28;20329;-74
2022/03/06 01:27:25;;;;;;;;;;;0.20;99.90;;;;;;5110658;28;20415;-75
2022/03/06 01:29:51;;;;;;;;;;;0.20;99.90;;;;;;5092619;28;20005;-74
2022/03/06 01:32:16;;;;;;;;;;;0.20;99.90;;;;;;5094810;28;20026;-74
2022/03/06 01:34:42;;;;;;;;;;;0.20;99.90;;;;;;5114801;28;20359;-74
2022/03/06 01:37:08;;;;;;;;;;;0.20;99.90;;;;;;5096204;28;19907;-74
2022/03/06 01:39:33;;;;;;;;;;;0.30;99.90;;;;;;5114762;28;19999;-72
2022/03/06 01:41:59;;;;;;;;;;;0.20;99.90;;;;;;5114431;28;19915;-74
2022/03/06 01:44:25;;;;;;;;;;;0.20;99.90;;;;;;5115252;28;20006;-74
2022/03/06 01:46:50;;;;;;;;;;;0.20;99.90;;;;;;5095995;28;19912;-74
2022/03/06 01:49:17;;;;;;;;;;;0.20;99.90;;;;;;5096348;28;20294;-74
2022/03/06 01:51:43;;;;;;;;;;;0.20;99.90;;;;;;5114107;28;19927;-74
2022/03/06 01:54:09;;;;;;;;;;;0.20;99.90;;;;;;5115019;28;19916;-73
2022/03/06 01:56:36;;;;;;;;;;;0.20;99.90;;;;;;5113330;28;20218;-74
2022/03/06 01:59:03;;;;;;;;;;;0.20;99.90;;;;;;5117355;27;19934;-74
2022/03/06 02:01:29;;;;;;;;;;;0.10;99.90;;;;;;5117321;27;20304;-73
2022/03/06 02:03:54;;;;;;;;;;;0.10;99.90;;;;;;5114177;28;20014;-74
2022/03/06 02:06:22;;;;;;;;;;;0.10;99.90;;;;;;5113897;28;19922;-73
2022/03/06 02:08:48;;;;;;;;;;;0.10;99.90;;;;;;5095693;28;19919;-74
2022/03/06 02:11:14;;;;;;;;;;;0.10;99.90;;;;;;5095703;28;19918;-73
2022/03/06 02:13:40;;;;;;;;;;;0.00;99.90;;;;;;5114083;28;20002;-74
2022/03/06 02:16:05;;;;;;;;;;;0.00;99.90;;;;;;5113972;28;20454;-73
2022/03/06 02:18:31;;;;;;;;;;;0.00;99.90;;;;;;5095855;28;20010;-73
2022/03/06 02:20:57;;;;;;;;;;;-0.10;99.90;;;;;;5113724;28;19922;-74
2022/03/06 02:23:24;;;;;;;;;;;0.00;99.90;;;;;;5114480;28;19912;-74
2022/03/06 02:25:49;;;;;;;;;;;0.00;99.90;;;;;;5113562;28;19911;-75
2022/03/06 02:28:15;;;;;;;;;;;0.00;99.90;;;;;;5095389;28;20373;-75
2022/03/06 02:30:42;;;;;;;;;;;0.00;99.90;;;;;;5095511;28;19958;-75
2022/03/06 02:33:09;;;;;;;;;;;0.00;99.90;;;;;;5095383;28;19926;-74
2022/03/06 02:35:35;;;;;;;;;;;0.00;99.90;;;;;;5113766;28;20324;-75
2022/03/06 02:38:00;;;;;;;;;;;0.00;99.90;;;;;;5113604;28;19913;-74
2022/03/06 02:40:26;;;;;;;;;;;0.00;99.90;;;;;;5095638;28;19920;-74
2022/03/06 02:42:52;;;;;;;;;;;-0.10;99.90;;;;;;5113470;28;19918;-74
2022/03/06 02:45:19;;;;;;;;;;;-0.10;99.90;;;;;;5113427;28;19923;-75
2022/03/06 02:47:45;;;;;;;;;;;-0.20;99.90;;;;;;5094881;28;19927;-74
2022/03/06 02:50:13;;;;;;;;;;;-0.20;99.90;;;;;;5094988;28;20403;-74
2022/03/06 02:52:39;;;;;;;;;;;-0.30;99.90;;;;;;5113334;28;19926;-75
2022/03/06 02:55:06;;;;;;;;;;;-0.20;99.90;;;;;;5113266;28;20229;-73
2022/03/06 02:57:32;;;;;;;;;;;-0.20;99.90;;;;;;5113336;28;19912;-73
2022/03/06 02:59:57;;;;;;;;;;;-0.20;99.90;;;;;;5100122;28;20287;-73
2022/03/06 03:02:23;;;;;;;;;;;-0.20;99.90;;;;;;5113100;28;20003;-74
2022/03/06 03:04:48;;;;;;;;;;;-0.20;99.90;;;;;;5112814;28;19920;-73
2022/03/06 03:07:14;;;;;;;;;;;-0.20;99.90;;;;;;5113057;28;20473;-73
2022/03/06 03:09:40;;;;;;;;;;;-0.20;99.90;;;;;;5112611;28;19916;-73
2022/03/06 03:12:06;;;;;;;;;;;-0.20;99.90;;;;;;5112834;28;20372;-74
2022/03/06 03:14:33;;;;;;;;;;;-0.20;99.90;;;;;;5094490;28;19937;-73
2022/03/06 03:17:00;;;;;;;;;;;-0.20;99.90;;;;;;5094432;28;19912;-74
2022/03/06 03:19:25;;;;;;;;;;;-0.20;99.90;;;;;;5113073;28;20367;-73
2022/03/06 03:21:51;;;;;;;;;;;-0.20;99.90;;;;;;5094433;28;19960;-74
2022/03/06 03:24:17;;;;;;;;;;;-0.20;99.90;;;;;;5094698;28;19919;-75
2022/03/06 03:26:42;;;;;;;;;;;-0.20;99.90;;;;;;5112416;28;19912;-75
2022/03/06 03:29:08;;;;;;;;;;;-0.20;99.90;;;;;;5112849;28;19908;-75
2022/03/06 03:31:34;;;;;;;;;;;-0.20;99.90;;;;;;5112421;28;20287;-74
2022/03/06 03:33:59;;;;;;;;;;;-0.20;99.90;;;;;;5094371;28;19956;-74
2022/03/06 03:36:25;;;;;;;;;;;-0.20;99.90;;;;;;5094042;28;19916;-74
2022/03/06 03:38:51;;;;;;;;;;;-0.20;99.90;;;;;;5094055;28;19918;-74
2022/03/06 03:41:16;;;;;;;;;;;-0.30;99.90;;;;;;5112223;28;19927;-73
2022/03/06 03:43:42;;;;;;;;;;;-0.30;99.90;;;;;;5094158;28;20252;-75
2022/03/06 03:46:07;;;;;;;;;;;-0.30;99.90;;;;;;5111979;28;19947;-73
2022/03/06 03:48:33;;;;;;;;;;;-0.30;99.90;;;;;;5112564;28;20344;-73
2022/03/06 03:50:59;;;;;;;;;;;-0.30;99.90;;;;;;5111753;28;19916;-73
2022/03/06 03:53:25;;;;;;;;;;;-0.30;99.90;;;;;;5112200;28;19922;-74
2022/03/06 03:55:51;;;;;;;;;;;-0.30;99.90;;;;;;5111484;28;20344;-74
2022/03/06 03:58:17;;;;;;;;;;;-0.30;99.90;;;;;;5094109;28;20314;-73
2022/03/06 04:00:43;;;;;;;;;;;-0.30;99.90;;;;;;5117235;27;19916;-73
2022/03/06 04:03:09;;;;;;;;;;;-0.30;99.90;;;;;;5111744;28;19912;-74
2022/03/06 04:05:35;;;;;;;;;;;-0.40;99.90;;;;;;5111943;28;20014;-74
2022/03/06 04:08:01;;;;;;;;;;;-0.40;99.90;;;;;;5093626;28;20252;-74
2022/03/06 04:10:26;;;;;;;;;;;-0.40;99.90;;;;;;5111635;28;19959;-74
2022/03/06 04:12:52;;;;;;;;;;;-0.40;99.90;;;;;;5111927;28;20333;-73
2022/03/06 04:15:17;;;;;;;;;;;-0.30;99.90;;;;;;5111819;28;19912;-74
2022/03/06 04:17:43;;;;;;;;;;;-0.30;99.90;;;;;;5093318;28;20399;-74
2022/03/06 04:20:09;;;;;;;;;;;-0.30;99.90;;;;;;5111596;28;19916;-73
2022/03/06 04:22:34;;;;;;;;;;;-0.30;99.90;;;;;;5111820;28;20295;-74
2022/03/06 04:25:00;;;;;;;;;;;-0.30;99.90;;;;;;5111608;28;19922;-73
2022/03/06 04:27:26;;;;;;;;;;;-0.30;99.90;;;;;;5111661;28;19922;-73
2022/03/06 04:29:51;;;;;;;;;;;-0.30;99.90;;;;;;5092634;28;20336;-74
2022/03/06 04:32:17;;;;;;;;;;;-0.30;99.90;;;;;;5092997;28;19912;-75
2022/03/06 04:34:42;;;;;;;;;;;-0.30;99.90;;;;;;5111374;28;20386;-74
2022/03/06 04:37:08;;;;;;;;;;;-0.30;99.90;;;;;;5112138;28;19908;-74
2022/03/06 04:39:34;;;;;;;;;;;-0.30;99.90;;;;;;5111637;28;19969;-75
2022/03/06 04:42:00;;;;;;;;;;;-0.20;99.90;;;;;;5093103;28;20324;-73
2022/03/06 04:44:26;;;;;;;;;;;-0.30;99.90;;;;;;5111476;28;19916;-75
2022/03/06 04:46:51;;;;;;;;;;;-0.20;99.90;;;;;;5092878;28;20260;-74
2022/03/06 04:49:17;;;;;;;;;;;-0.30;99.90;;;;;;5111579;28;20006;-74
2022/03/06 04:51:42;;;;;;;;;;;-0.30;99.90;;;;;;5092499;28;19920;-74
2022/03/06 04:54:08;;;;;;;;;;;-0.30;99.90;;;;;;5093130;28;20355;-74
2022/03/06 04:56:34;;;;;;;;;;;-0.30;99.90;;;;;;5111186;28;19919;-74
2022/03/06 04:59:00;;;;;;;;;;;-0.20;99.90;;;;;;5111809;28;19912;-74
2022/03/06 05:01:25;;;;;;;;;;;-0.20;99.90;;;;;;5109902;28;20652;-75
2022/03/06 05:03:51;;;;;;;;;;;-0.30;99.90;;;;;;5131799;28;19911;-73
2022/03/06 05:06:17;;;;;;;;;;;-0.20;99.90;;;;;;5137357;27;20362;-74
2022/03/06 05:08:43;;;;;;;;;;;-0.20;99.90;;;;;;5136363;27;20282;-73
2022/03/06 05:11:10;;;;;;;;;;;-0.20;99.90;;;;;;5116848;27;19912;-74
2022/03/06 05:13:36;;;;;;;;;;;-0.10;99.90;;;;;;5136125;27;20355;-75
2022/03/06 05:16:02;;;;;;;;;;;-0.10;99.90;;;;;;5121754;27;19961;-75
2022/03/06 05:18:28;;;;;;;;;;;-0.20;99.90;;;;;;5096875;28;20389;-74
2022/03/06 05:20:53;;;;;;;;;;;-0.20;99.90;;;;;;5115149;28;20275;-73
2022/03/06 05:23:19;;;;;;;;;;;-0.10;99.90;;;;;;5115296;28;19918;-73
2022/03/06 05:25:45;;;;;;;;;;;-0.10;99.90;;;;;;5114860;28;20416;-73
2022/03/06 05:28:11;;;;;;;;;;;-0.10;99.90;;;;;;5096553;28;19973;-73
2022/03/06 05:30:37;;;;;;;;;;;-0.10;99.90;;;;;;5096044;28;20006;-74
2022/03/06 05:33:02;;;;;;;;;;;0.00;99.90;;;;;;5115023;28;20284;-73
2022/03/06 05:35:28;;;;;;;;;;;0.00;99.90;;;;;;5114706;28;19916;-75
2022/03/06 05:37:54;;;;;;;;;;;0.00;99.90;;;;;;5115174;28;19999;-74
2022/03/06 05:40:19;;;;;;;;;;;0.00;99.90;;;;;;5114429;28;19911;-74
2022/03/06 05:42:45;;;;;;;;;;;0.10;99.90;;;;;;5114979;28;19911;-74
2022/03/06 05:45:11;;;;;;;;;;;0.10;99.90;;;;;;5114648;28;19965;-74
2022/03/06 05:47:36;;;;;;;;;;;0.10;99.90;;;;;;5114982;28;20393;-73
2022/03/06 05:50:03;;;;;;;;;;;0.20;99.90;;;;;;5114528;28;20282;-73
2022/03/06 05:52:29;;;;;;;;;;;0.20;99.90;;;;;;5095753;28;19931;-74
2022/03/06 05:54:54;;;;;;;;;;;0.20;99.90;;;;;;5114461;28;19915;-74
2022/03/06 05:57:20;;;;;;;;;;;0.20;99.90;;;;;;5096081;28;19916;-73
2022/03/06 05:59:45;;;;;;;;;;;0.30;99.90;;;;;;5114227;28;20436;-73
2022/03/06 06:02:11;;;;;;;;;;;0.30;99.90;;;;;;5114133;28;19942;-75
2022/03/06 06:04:37;;;;;;;;;;;0.40;99.90;;;;;;5114333;28;20010;-74
2022/03/06 06:07:02;;;;;;;;;;;0.40;99.90;;;;;;5114168;28;20031;-74
2022/03/06 06:09:28;;;;;;;;;;;0.40;99.90;;;;;;5095823;28;20422;-74
2022/03/06 06:11:53;;;;;;;;;;;0.40;99.90;;;;;;5113763;28;20320;-74
2022/03/06 06:14:19;;;;;;;;;;;0.40;99.90;;;;;;5095939;28;19924;-74
2022/03/06 06:16:45;;;;;;;;;;;0.40;99.90;;;;;;5094947;28;20278;-74
2022/03/06 06:19:10;;;;;;;;;;;0.40;99.90;;;;;;5114543;28;20017;-73
2022/03/06 06:21:36;;;;;;;;;;;0.40;99.90;;;;;;5113617;28;19915;-75
2022/03/06 06:24:02;;;;;;;;;;;0.40;99.90;;;;;;5095639;28;19911;-74
2022/03/06 06:26:27;;;;;;;;;;;0.40;99.90;;;;;;5095264;28;19922;-74
2022/03/06 06:28:56;;;;;;;;;;;0.40;99.90;;;;;;5095332;28;19912;-74
2022/03/06 06:31:25;;;;;;;;;;;0.40;99.90;;;;;;5094948;28;19916;-74
2022/03/06 06:33:50;;;;;;;;;;;0.40;99.90;;;;;;5113979;28;19916;-73
2022/03/06 06:36:17;;;;;;;;;;;0.40;99.90;;;;;;5113330;28;20402;-73
2022/03/06 06:38:43;;;;;;;;;;;0.50;99.90;;;;;;5114042;28;20359;-73
2022/03/06 06:41:08;;;;;;;;;;;0.40;99.90;;;;;;5094767;28;20371;-73
2022/03/06 06:43:34;;;;;;;;;;;0.40;99.90;;;;;;5113577;28;19919;-74
2022/03/06 06:46:00;;;;;;;;;;;0.40;99.90;;;;;;5113172;28;20010;-73
2022/03/06 06:48:25;;;;;;;;;;;0.40;99.90;;;;;;5113881;28;19912;-74
2022/03/06 06:50:51;;;;;;;;;;;0.40;99.90;;;;;;5094869;28;19955;-74
2022/03/06 06:53:17;;;;;;;;;;;0.40;99.90;;;;;;5112803;28;19923;-74
2022/03/06 06:55:42;;;;;;;;;;;0.40;99.90;;;;;;5113034;28;19912;-74
2022/03/06 06:58:08;;;;;;;;;;;0.40;99.90;;;;;;5113331;28;19912;-74
2022/03/06 07:00:34;;;;;;;;;;;0.40;99.90;;;;;;5100392;28;20272;-75
2022/03/06 07:02:59;;;;;;;;;;;0.40;99.90;;;;;;5094256;28;19934;-75
2022/03/06 07:05:25;;;;;;;;;;;0.50;99.90;;;;;;5094607;28;20018;-74
2022/03/06 07:07:53;;;;;;;;;;;0.60;99.90;;;;;;5113109;28;19916;-73
2022/03/06 07:10:18;;;;;;;;;;;0.50;99.90;;;;;;5094371;28;19985;-73
2022/03/06 07:12:48;;;;;;;;;;;0.50;99.90;;;;;;5112716;28;19911;-73
2022/03/06 07:15:14;;;;;;;;;;;0.60;99.90;;;;;;5094195;28;19973;-73
2022/03/06 07:17:40;;;;;;;;;;;0.70;99.90;;;;;;5094689;28;20324;-73
2022/03/06 07:20:07;;;;;;;;;;;0.80;99.90;;;;;;5112729;28;19912;-75
2022/03/06 07:22:32;;;;;;;;;;;0.80;99.90;;;;;;5112424;28;19923;-73
2022/03/06 07:24:58;;;;;;;;;;;0.80;99.90;;;;;;5112410;28;19912;-73
2022/03/06 07:27:23;;;;;;;;;;;0.80;99.90;;;;;;5112633;28;20343;-74
2022/03/06 07:29:49;;;;;;;;;;;0.90;99.90;;;;;;5114794;27;19922;-73
2022/03/06 07:32:16;;;;;;;;;;;0.90;99.90;;;;;;5132768;27;19956;-74
2022/03/06 07:34:41;;;;;;;;;;;1.00;99.90;;;;;;5114613;27;19911;-73
2022/03/06 07:37:07;;;;;;;;;;;1.10;99.90;;;;;;5133214;27;19907;-74
2022/03/06 07:39:33;;;;;;;;;;;1.30;99.90;;;;;;5113772;27;20266;-74
2022/03/06 07:41:58;;;;;;;;;;;1.50;99.90;;;;;;5093914;28;19908;-74
2022/03/06 07:44:24;;;;;;;;;;;1.60;99.90;;;;;;5093774;28;19915;-74
2022/03/06 07:46:49;;;;;;;;;;;1.70;99.90;;;;;;5132306;27;19926;-74
2022/03/06 07:49:15;;;;;;;;;;;1.70;99.90;;;;;;5133437;27;19911;-74
2022/03/06 07:51:40;;;;;;;;;;;1.70;99.90;;;;;;5113944;27;19930;-74
2022/03/06 07:54:08;;;;;;;;;;;1.80;99.90;;;;;;5132359;27;19922;-74
2022/03/06 07:56:33;;;;;;;;;;;1.90;99.90;;;;;;5133708;27;19920;-73
2022/03/06 07:58:59;;;;;;;;;;;2.00;99.90;;;;;;5132582;27;19912;-73
2022/03/06 08:01:24;;;;;;;;;;;2.00;99.90;;;;;;5115658;27;19958;-74
2022/03/06 08:03:50;;;;;;;;;;;2.10;99.90;;;;;;5093673;28;19919;-74
2022/03/06 08:06:16;;;;;;;;;;;2.30;99.90;;;;;;5093437;28;19965;-73
2022/03/06 08:08:43;;;;;;;;;;;2.50;99.90;;;;;;5094292;28;19912;-74
2022/03/06 08:11:08;;;;;;;;;;;2.50;99.90;;;;;;5111706;28;19916;-75
2022/03/06 08:13:34;;;;;;;;;;;2.60;99.90;;;;;;5112048;28;19919;-75
2022/03/06 08:16:00;;;;;;;;;;;2.60;99.90;;;;;;5093313;28;19963;-74
2022/03/06 08:18:25;;;;;;;;;;;2.60;99.90;;;;;;5093586;28;19964;-73
2022/03/06 08:20:51;;;;;;;;;;;2.70;99.90;;;;;;5111553;28;19953;-74
2022/03/06 08:23:16;;;;;;;;;;;2.70;99.90;;;;;;5093095;28;19920;-74
2022/03/06 08:25:42;;;;;;;;;;;2.90;99.90;;;;;;5093206;28;20325;-74
2022/03/06 08:28:07;;;;;;;;;;;3.00;99.90;;;;;;5111745;28;19916;-74
2022/03/06 08:30:33;;;;;;;;;;;3.00;99.90;;;;;;5111569;28;19919;-74
2022/03/06 08:32:59;;;;;;;;;;;3.00;99.90;;;;;;5111532;28;19915;-75
2022/03/06 08:35:24;;;;;;;;;;;2.90;99.90;;;;;;5092850;28;20287;-75
2022/03/06 08:37:50;;;;;;;;;;;2.80;99.90;;;;;;5111670;28;20339;-74
2022/03/06 08:40:16;;;;;;;;;;;2.70;99.90;;;;;;5092872;28;19916;-75
2022/03/06 08:42:41;;;;;;;;;;;2.70;99.90;;;;;;5092939;28;19916;-75
2022/03/06 08:45:07;;;;;;;;;;;2.50;99.90;;;;;;5111263;28;20419;-75
2022/03/06 08:47:33;;;;;;;;;;;2.40;99.90;;;;;;5111227;28;19965;-74
2022/03/06 08:49:59;;;;;;;;;;;2.30;99.90;;;;;;5111100;28;20309;-75
2022/03/06 08:52:24;;;;;;;;;;;2.30;99.90;;;;;;5092747;28;19927;-74
2022/03/06 08:54:50;;;;;;;;;;;2.30;99.90;;;;;;5092457;28;20393;-74
2022/03/06 08:57:15;;;;;;;;;;;2.40;99.90;;;;;;5111246;28;20306;-73
2022/03/06 08:59:41;;;;;;;;;;;2.40;99.90;;;;;;5094919;28;19960;-74
2022/03/06 09:02:07;;;;;;;;;;;2.20;99.90;;;;;;5131861;28;19912;-74
2022/03/06 09:04:33;;;;;;;;;;;2.10;99.90;;;;;;5130742;28;19911;-74
2022/03/06 09:06:59;;;;;;;;;;;2.00;99.90;;;;;;5092692;28;19943;-74
2022/03/06 09:09:24;;;;;;;;;;;2.00;99.90;;;;;;5111434;28;19965;-74
2022/03/06 09:11:50;;;;;;;;;;;1.90;99.90;;;;;;5092474;28;19955;-74
2022/03/06 09:14:16;;;;;;;;;;;1.90;99.90;;;;;;5092569;28;19911;-72
2022/03/06 09:16:41;;;;;;;;;;;1.90;99.90;;;;;;5110762;28;20002;-74
2022/03/06 09:19:07;;;;;;;;;;;1.90;99.90;;;;;;5092672;28;19926;-75
2022/03/06 09:21:33;;;;;;;;;;;1.90;99.90;;;;;;5110943;28;19912;-74
2022/03/06 09:23:59;;;;;;;;;;;2.00;99.90;;;;;;5111129;28;19916;-75
2022/03/06 09:26:25;;;;;;;;;;;1.90;99.90;;;;;;5127817;28;20321;-74
2022/03/06 09:28:50;;;;;;;;;;;1.90;99.90;;;;;;5131706;28;20243;-75
2022/03/06 09:31:16;;;;;;;;;;;1.90;99.90;;;;;;5112785;28;19911;-75
2022/03/06 09:33:42;;;;;;;;;;;1.90;99.90;;;;;;5131140;28;19984;-75
2022/03/06 09:36:07;;;;;;;;;;;1.90;99.90;;;;;;5116623;28;19912;-74
2022/03/06 09:38:33;;;;;;;;;;;1.90;99.90;;;;;;5111116;28;19998;-74
2022/03/06 09:41:00;;;;;;;;;;;1.90;99.90;;;;;;5110625;28;20377;-73
2022/03/06 09:43:26;;;;;;;;;;;2.00;99.90;;;;;;5111006;28;19911;-74
2022/03/06 09:45:56;;;;;;;;;;;2.00;99.90;;;;;;5110230;28;20390;-74
2022/03/06 09:48:21;;;;;;;;;;;2.00;99.90;;;;;;5111151;28;19920;-74
2022/03/06 09:50:47;;;;;;;;;;;2.00;99.90;;;;;;5110594;28;19919;-73
2022/03/06 09:53:12;;;;;;;;;;;2.10;99.90;;;;;;5091191;28;19927;-74
2022/03/06 09:55:38;;;;;;;;;;;2.20;99.90;;;;;;5093694;28;20395;-73
2022/03/06 09:58:04;;;;;;;;;;;2.30;99.90;;;;;;5094510;28;20371;-74
2022/03/06 10:00:32;;;;;;;;;;;2.20;99.90;;;;;;5099675;28;19912;-74
2022/03/06 10:02:59;;;;;;;;;;;2.20;99.90;;;;;;5093702;28;19916;-74
2022/03/06 10:05:29;;;;;;;;;;;2.20;99.90;;;;;;5092198;28;19919;-75
2022/03/06 10:08:13;;;;;;;;;;;2.10;99.90;;;;;;5092733;28;19923;-75
2022/03/06 10:10:39;;;;;;;;;;;2.20;99.90;;;;;;5104205;28;20275;-74
2022/03/06 10:13:16;;;;;;;;;;;2.40;99.90;;;;;;5112537;28;20003;-74
2022/03/06 10:16:02;;;;;;;;;;;2.50;99.90;;;;;;5112213;28;20361;-75
2022/03/06 10:18:31;;;;;;;;;;;2.60;99.90;;;;;;5114479;28;19916;-75
2022/03/06 10:21:00;;;;;;;;;;;2.70;99.90;;;;;;5100987;28;20045;-74
2022/03/06 10:23:26;;;;;;;;;;;2.90;99.90;;;;;;5093694;28;19919;-74
2022/03/06 10:26:02;;;;;;;;;;;3.00;99.90;;;;;;5093294;28;19934;-74
2022/03/06 10:28:28;;;;;;;;;;;3.10;99.90;;;;;;5093477;28;19916;-73
2022/03/06 10:30:53;;;;;;;;;;;3.20;99.90;;;;;;5093539;28;20292;-73
2022/03/06 10:33:22;;;;;;;;;;;3.10;99.90;;;;;;5092308;28;19919;-74
2022/03/06 10:35:50;;;;;;;;;;;3.00;99.90;;;;;;5093451;28;20265;-74
2022/03/06 10:38:19;;;;;;;;;;;3.00;99.90;;;;;;5092272;28;19955;-74
2022/03/06 10:40:45;;;;;;;;;;;2.90;99.90;;;;;;5091999;28;19966;-74
2022/03/06 10:43:18;;;;;;;;;;;2.80;99.90;;;;;;5092987;28;19916;-73
2022/03/06 10:45:44;;;;;;;;;;;2.80;99.90;;;;;;5091310;28;19948;-75
2022/03/06 10:48:10;;;;;;;;;;;2.80;99.90;;;;;;5091962;28;20289;-73
2022/03/06 10:50:36;;;;;;;;;;;2.70;99.90;;;;;;5093023;28;19998;-74
2022/03/06 10:53:15;;;;;;;;;;;2.70;99.90;;;;;;5110369;28;19919;-74
2022/03/06 10:55:41;;;;;;;;;;;2.70;99.90;;;;;;5113009;28;19965;-75
2022/03/06 10:58:07;;;;;;;;;;;2.60;99.90;;;;;;5113655;28;19916;-73
2022/03/06 11:00:33;;;;;;;;;;;2.60;99.90;;;;;;5118926;27;19912;-74
2022/03/06 11:03:00;;;;;;;;;;;2.60;99.90;;;;;;5094403;28;20359;-74
2022/03/06 11:05:27;;;;;;;;;;;2.50;99.90;;;;;;5094791;28;19916;-75
2022/03/06 11:07:53;;;;;;;;;;;2.40;99.90;;;;;;5094489;28;20359;-74
2022/03/06 11:10:22;;;;;;;;;;;2.40;99.90;;;;;;5094541;28;19912;-74
2022/03/06 11:12:48;;;;;;;;;;;2.40;99.90;;;;;;5094403;28;19920;-75
2022/03/06 11:15:13;;;;;;;;;;;2.30;99.90;;;;;;5112717;28;19957;-74
2022/03/06 11:17:39;;;;;;;;;;;2.30;99.90;;;;;;5112798;28;19919;-75
2022/03/06 11:20:05;;;;;;;;;;;2.20;99.90;;;;;;5094448;28;20362;-75
2022/03/06 11:22:37;;;;;;;;;;;2.20;99.90;;;;;;5094315;28;19916;-73
2022/03/06 11:25:13;;;;;;;;;;;2.10;99.90;;;;;;5112524;28;20268;-74
2022/03/06 11:27:54;;;;;;;;;;;2.10;99.90;;;;;;5112613;28;19968;-74
2022/03/06 11:30:20;;;;;;;;;;;2.00;99.90;;;;;;5094030;28;19949;-74
2022/03/06 11:32:57;;;;;;;;;;;2.00;99.90;;;;;;5112548;28;20705;-74
2022/03/06 11:35:29;;;;;;;;;;;1.90;99.90;;;;;;5112421;28;19912;-75
2022/03/06 11:37:56;;;;;;;;;;;1.90;99.90;;;;;;5112324;28;19995;-75
2022/03/06 11:40:44;;;;;;;;;;;1.90;99.90;;;;;;5094302;28;19912;-73
2022/03/06 11:43:11;;;;;;;;;;;2.00;99.90;;;;;;5093962;28;19911;-75
2022/03/06 11:45:49;;;;;;;;;;;2.00;99.90;;;;;;5094020;28;20625;-75
2022/03/06 11:48:24;;;;;;;;;;;1.90;99.90;;;;;;5094179;28;20009;-75
2022/03/06 11:51:08;;;;;;;;;;;1.90;99.90;;;;;;5105744;27;20464;-75
2022/03/06 11:53:49;;;;;;;;;;;1.90;99.90;;;;;;5114353;27;20014;-74
2022/03/06 11:56:36;;;;;;;;;;;1.90;99.90;;;;;;5133161;27;19918;-74
2022/03/06 11:59:16;;;;;;;;;;;1.90;99.90;;;;;;5130801;27;19950;-74
2022/03/06 12:01:43;;;;;;;;;;;2.00;99.90;;;;;;5111831;28;19916;-74
2022/03/06 12:04:10;;;;;;;;;;;2.10;99.90;;;;;;5093809;28;19911;-74
2022/03/06 12:06:40;;;;;;;;;;;2.20;99.90;;;;;;5111444;28;19923;-74
2022/03/06 12:09:11;;;;;;;;;;;2.20;99.90;;;;;;5093122;28;19987;-74
2022/03/06 12:11:37;;;;;;;;;;;2.30;99.90;;;;;;5111881;28;20260;-74
2022/03/06 12:14:13;;;;;;;;;;;2.20;99.90;;;;;;5112335;28;20003;-73
2022/03/06 12:16:57;;;;;;;;;;;2.30;99.90;;;;;;5111165;27;20006;-73
2022/03/06 12:19:23;;;;;;;;;;;2.30;99.90;;;;;;5132543;27;20381;-74
2022/03/06 12:21:48;;;;;;;;;;;2.30;99.90;;;;;;5113917;27;19912;-75
2022/03/06 12:24:26;;;;;;;;;;;2.20;99.90;;;;;;5114030;27;20002;-75
2022/03/06 12:26:53;;;;;;;;;;;2.20;99.90;;;;;;5093090;28;19919;-74
2022/03/06 12:29:42;;;;;;;;;;;2.30;99.90;;;;;;5111626;28;19915;-73
2022/03/06 12:32:25;;;;;;;;;;;2.30;99.90;;;;;;5100591;28;20455;-74
2022/03/06 12:34:56;;;;;;;;;;;2.30;99.90;;;;;;5114757;27;19926;-73
2022/03/06 12:37:22;;;;;;;;;;;2.40;99.90;;;;;;5132181;27;19915;-75
2022/03/06 12:39:49;;;;;;;;;;;2.60;99.90;;;;;;5128877;27;20022;-74
2022/03/06 12:42:21;;;;;;;;;;;2.60;99.90;;;;;;5111417;28;19962;-74
2022/03/06 12:44:52;;;;;;;;;;;2.60;99.90;;;;;;5111206;28;19931;-74
2022/03/06 12:47:17;;;;;;;;;;;2.50;99.90;;;;;;5092895;28;19916;-75
2022/03/06 12:49:47;;;;;;;;;;;2.40;99.90;;;;;;5111268;28;19916;-74
2022/03/06 12:52:15;;;;;;;;;;;2.30;99.90;;;;;;5111014;28;19930;-75
2022/03/06 12:54:41;;;;;;;;;;;2.30;99.90;;;;;;5111243;28;19919;-73
2022/03/06 12:57:06;;;;;;;;;;;2.30;99.90;;;;;;5111469;28;19912;-74
2022/03/06 12:59:39;;;;;;;;;;;2.40;99.90;;;;;;5098348;28;19912;-74
2022/03/06 13:02:05;;;;;;;;;;;2.50;99.90;;;;;;5110936;28;19907;-75
2022/03/06 13:04:31;;;;;;;;;;;2.40;99.90;;;;;;5092948;28;19942;-75
2022/03/06 13:06:57;;;;;;;;;;;2.30;99.90;;;;;;5092775;28;19920;-74
2022/03/06 13:09:34;;;;;;;;;;;2.20;99.90;;;;;;5111340;28;20341;-74
2022/03/06 13:12:00;;;;;;;;;;;2.10;99.90;;;;;;5111090;28;19914;-73
2022/03/06 13:14:27;;;;;;;;;;;2.10;99.90;;;;;;5093231;28;19911;-74
2022/03/06 13:16:57;;;;;;;;;;;2.10;99.90;;;;;;5110883;28;20387;-74
2022/03/06 13:19:22;;;;;;;;;;;2.10;99.90;;;;;;5110945;28;19961;-73
2022/03/06 13:21:48;;;;;;;;;;;2.10;99.90;;;;;;5092532;28;20283;-73
2022/03/06 13:24:15;;;;;;;;;;;2.00;99.90;;;;;;5092867;28;19912;-73
2022/03/06 13:26:41;;;;;;;;;;;2.10;99.90;;;;;;5092329;28;20368;-74
2022/03/06 13:29:08;;;;;;;;;;;2.20;99.90;;;;;;5115037;28;19915;-74
2022/03/06 13:31:41;;;;;;;;;;;2.30;99.90;;;;;;5114794;28;19977;-74
2022/03/06 13:34:07;;;;;;;;;;;2.20;99.90;;;;;;5096308;28;19919;-73
2022/03/06 13:36:36;;;;;;;;;;;2.30;99.90;;;;;;5114535;28;20243;-73
2022/03/06 13:39:23;;;;;;;;;;;2.20;99.90;;;;;;5115086;28;19953;-75
2022/03/06 13:41:50;;;;;;;;;;;2.10;99.90;;;;;;5096003;28;19995;-74
2022/03/06 13:44:15;;;;;;;;;;;1.90;99.90;;;;;;5115424;28;20356;-75
2022/03/06 13:46:41;;;;;;;;;;;1.80;99.90;;;;;;5114422;28;20014;-74
2022/03/06 13:49:07;;;;;;;;;;;1.80;99.90;;;;;;5096403;28;19938;-74
2022/03/06 13:51:33;;;;;;;;;;;1.90;99.90;;;;;;5114138;28;19975;-74
2022/03/06 13:54:00;;;;;;;;;;;1.90;99.90;;;;;;5115018;28;19978;-74
2022/03/06 13:56:29;;;;;;;;;;;1.90;99.90;;;;;;5114470;28;19950;-73
2022/03/06 13:58:55;;;;;;;;;;;2.00;99.90;;;;;;5115911;27;20270;-74
2022/03/06 14:01:21;;;;;;;;;;;2.00;99.90;;;;;;5135112;27;19919;-74
2022/03/06 14:03:46;;;;;;;;;;;1.90;99.90;;;;;;5151107;27;20220;-75
2022/03/06 14:06:13;;;;;;;;;;;1.90;99.90;;;;;;5119949;27;19956;-74
2022/03/06 14:08:46;;;;;;;;;;;1.90;99.90;;;;;;5096256;28;20313;-75
2022/03/06 14:11:24;;;;;;;;;;;1.80;99.90;;;;;;5095933;28;19972;-75
2022/03/06 14:13:54;;;;;;;;;;;1.80;99.90;;;;;;5114550;28;19924;-74
2022/03/06 14:16:19;;;;;;;;;;;1.70;99.90;;;;;;5114374;28;19916;-74
2022/03/06 14:18:45;;;;;;;;;;;1.70;99.90;;;;;;5114500;28;19937;-74
2022/03/06 14:21:19;;;;;;;;;;;1.70;99.90;;;;;;5095761;28;19961;-74
2022/03/06 14:23:55;;;;;;;;;;;1.80;99.90;;;;;;5114253;28;19912;-75
2022/03/06 14:26:28;;;;;;;;;;;1.70;99.90;;;;;;5095404;28;19916;-73
2022/03/06 14:28:55;;;;;;;;;;;1.70;99.90;;;;;;5113801;28;20014;-74